Cincinnati, OH

12:01 PM EDT on May 25, 2015 (GMT -0400)
Mt. Healthy, OH | | Change Station
CLOSE
Current Station
Personal Weather Station
Location: Cincinnati, OH
Elevation: 784 ft
Nearby Weather Stations

Elev 784 ft 39.24 °N, 84.56 °W | Updated 53 seconds ago

Overcast
Overcast
69.5 °F
Feels Like 69.5 °F
N
1.0
Wind Variable Wind from SSW
Gusts 1.0 mph

Today
High -- | Low -- °F
--% Chance of Precip.
Yesterday
High -- | Low -- °F
Precip. -- in
6:17 AM 8:53 PM
Waxing Crescent, 49% visible
Pressure 30.14 in
Visibility 10.0 miles
Clouds Few 4100 ft
Dew Point 66 °F
Humidity 87%
Rainfall 0.23 in
Snow Depth Not available.
UV 9 out of 12
Pollen 9.50 out of 12
Air Quality Not available.
Flu Activity Local Activity
METAR KHAO 251553Z AUTO VRB06KT 10SM FEW041 22/18 A3014 RMK AO2 RAE1454B21E35 SLP204 P0000 T02170178

More Conditions Fewer Conditions

Pressure 30.14 in
Visibility 10.0 miles
Clouds Few 4100 ft
Dew Point 66 °F
Humidity 87%
Rainfall 0.23 in
Snow Depth Not available.
UV 9 out of 12
Pollen 9.50 out of 12
Air Quality Not available.
Flu Activity Local Activity
METAR KHAO 251553Z AUTO VRB06KT 10SM FEW041 22/18 A3014 RMK AO2 RAE1454B21E35 SLP204 P0000 T02170178

More Conditions Fewer Conditions

10-Day Weather Forecast

Almanac

Astronomy

May. 25, 2015 Rise Set
Actual Time
Civil Twilight
Nautical Twilight
Astronomical Twilight
Moon
Length of Visible Light
Length of Day
Tomorrow will be .
, % of the Moon is Illuminated

Today's Extremes

State Highs State Lows

Community

WunderPhotos

Upload Photos

1,824,033 photos uploaded!

WunderBlogs® & News

Nearby

Air Quality

  Air Quality AQ Index Pollutant
Not available.

Snow Depth

Station Depth Elevation

Earthquake Activity

City Distance Mag. Time & Date
Minimum magnitude displayed is 2.5.

Coastal Water Temperatures

Place Temperature

Stations

Nearby Weather Stations

Station Location Temp. Windchill Dew Point Humidity Wind Precip. Elev Updated Type